Time;durP1;ratioP1;P1;durP2;ratioP2;P2;SDS_P1;SDS_P2;PMS_P1;PMS_P2;Temp;Humidity;BMP_temperature;BMP_pressure;BME280_temperature;BME280_humidity;BME280_pressure;Samples;Min_cycle;Max_cycle;Signal;HPM_P1;HPM_P2
2021/04/18 00:00:29;;;;;;;30.77;21.33;;;230.70;2252.80;;;;;;4996945;28;19921;-78
2021/04/18 00:02:55;;;;;;;;;;;230.70;2252.80;;;;;;5002194;28;20021;-78
2021/04/18 00:05:24;;;;;;;34.95;20.98;;;230.80;2252.80;;;;;;5009268;28;19905;-78
2021/04/18 00:07:51;;;;;;;32.95;21.38;;;230.70;2252.80;;;;;;5025727;28;20021;-78
2021/04/18 00:10:20;;;;;;;37.45;23.83;;;230.80;2252.80;;;;;;5014869;28;20033;-78
2021/04/18 00:12:46;;;;;;;35.65;23.48;;;230.70;2252.80;;;;;;4996770;28;20128;-79
2021/04/18 00:15:13;;;;;;;;;;;230.70;2252.80;;;;;;4997536;28;20022;-79
2021/04/18 00:17:39;;;;;;;;;;;230.80;2252.80;;;;;;4996967;28;19917;-78
2021/04/18 00:20:10;;;;;;;38.10;24.25;;;230.80;2252.80;;;;;;4996924;28;20406;-79
2021/04/18 00:22:36;;;;;;;39.28;26.20;;;230.70;2252.80;;;;;;5012366;28;20123;-78
2021/04/18 00:25:03;;;;;;;;;;;230.80;2252.80;;;;;;5014779;28;20018;-79
2021/04/18 00:27:28;;;;;;;36.35;23.85;;;230.80;2252.80;;;;;;4996457;28;19949;-78
2021/04/18 00:29:54;;;;;;;;;;;230.80;2252.80;;;;;;4997106;28;20057;-79
2021/04/18 00:32:20;;;;;;;35.05;24.13;;;230.90;2252.80;;;;;;5014111;28;19905;-78
2021/04/18 00:34:45;;;;;;;;;;;230.80;2252.80;;;;;;4996737;28;20713;-78
2021/04/18 00:37:11;;;;;;;37.53;24.55;;;230.80;2252.80;;;;;;4993962;28;19918;-79
2021/04/18 00:39:37;;;;;;;;;;;230.80;2252.80;;;;;;5014360;28;20025;-79
2021/04/18 00:42:03;;;;;;;33.22;22.55;;;230.80;2252.80;;;;;;4996545;28;19992;-78
2021/04/18 00:44:29;;;;;;;36.15;23.50;;;230.80;2252.80;;;;;;4996169;28;20549;-79
2021/04/18 00:46:54;;;;;;;;;;;230.80;2252.80;;;;;;4996815;28;20025;-78
2021/04/18 00:49:20;;;;;;;33.55;21.98;;;230.80;2252.80;;;;;;4996285;28;20263;-78
2021/04/18 00:51:46;;;;;;;;;;;230.80;2252.80;;;;;;5014221;28;20050;-78
2021/04/18 00:54:11;;;;;;;37.75;24.65;;;230.70;2252.80;;;;;;4996094;28;19905;-79
2021/04/18 00:56:37;;;;;;;;;;;230.70;2252.80;;;;;;5014056;28;20033;-77
2021/04/18 00:59:03;;;;;;;44.17;27.45;;;230.70;2252.80;;;;;;4995946;28;19905;-79
2021/04/18 01:01:28;;;;;;;;;;;230.70;2252.80;;;;;;5013786;28;20125;-77
2021/04/18 01:03:54;;;;;;;39.30;26.05;;;230.60;2252.80;;;;;;5012836;28;19964;-79
2021/04/18 01:06:20;;;;;;;;;;;230.70;2252.80;;;;;;5014044;28;20033;-78
2021/04/18 01:08:46;;;;;;;39.58;24.42;;;230.70;2252.80;;;;;;4996052;28;19996;-78
2021/04/18 01:11:11;;;;;;;;;;;230.60;2252.80;;;;;;5013697;28;20026;-78
2021/04/18 01:13:37;;;;;;;38.50;24.23;;;230.50;2252.80;;;;;;4995844;28;19931;-79
2021/04/18 01:16:03;;;;;;;;;;;230.50;2252.80;;;;;;5013682;28;20018;-78
2021/04/18 01:18:31;;;;;;;38.63;24.15;;;230.40;2252.80;;;;;;4995742;28;19940;-79
2021/04/18 01:21:10;;;;;;;43.15;25.63;;;230.50;2252.80;;;;;;5013139;28;20471;-79
2021/04/18 01:23:36;;;;;;;45.58;27.33;;;230.50;2252.80;;;;;;5002443;28;20018;-79
2021/04/18 01:26:02;;;;;;;;;;;230.40;2252.80;;;;;;4994733;28;20113;-77
2021/04/18 01:28:27;;;;;;;41.72;25.73;;;205.70;2252.80;;;;;;5012868;28;19905;-80
2021/04/18 01:30:53;;;;;;;;;;;205.70;2252.80;;;;;;5010898;28;20022;-79
2021/04/18 01:33:20;;;;;;;41.08;24.40;;;205.70;2252.80;;;;;;5012889;28;19912;-78
2021/04/18 01:35:47;;;;;;;38.85;23.95;;;230.40;2252.80;;;;;;5012982;28;20025;-78
2021/04/18 01:38:15;;;;;;;38.13;23.77;;;230.50;2252.80;;;;;;5012651;28;20422;-77
2021/04/18 01:40:41;;;;;;;39.42;23.15;;;205.70;2252.80;;;;;;4994910;28;20030;-77
2021/04/18 01:43:06;;;;;;;;;;;230.50;2252.80;;;;;;5013059;28;20022;-76
2021/04/18 01:45:32;;;;;;;34.55;21.80;;;230.50;2252.80;;;;;;4994897;28;20001;-77
2021/04/18 01:47:59;;;;;;;;;;;230.50;2252.80;;;;;;5013191;28;20529;-78
2021/04/18 01:50:26;;;;;;;23.73;15.93;;;230.40;2252.80;;;;;;5012649;28;19909;-77
2021/04/18 01:52:52;;;;;;;27.38;19.02;;;230.40;2252.80;;;;;;4994783;28;20158;-77
2021/04/18 01:55:18;;;;;;;;;;;230.50;2252.80;;;;;;4995006;28;20034;-77
2021/04/18 01:57:44;;;;;;;27.42;18.38;;;230.50;2252.80;;;;;;5012469;28;20008;-78
2021/04/18 02:00:10;;;;;;;;;;;230.60;2252.80;;;;;;4995408;28;20132;-78
2021/04/18 02:02:36;;;;;;;22.23;14.70;;;230.60;2252.80;;;;;;4992657;28;19913;-77
2021/04/18 02:05:02;;;;;;;;;;;230.60;2252.80;;;;;;4994810;28;20026;-76
2021/04/18 02:07:28;;;;;;;26.42;17.65;;;230.40;2252.80;;;;;;5012208;28;19975;-80
2021/04/18 02:09:53;;;;;;;;;;;230.40;2252.80;;;;;;4994086;28;20141;-79
2021/04/18 02:12:20;;;;;;;27.63;18.23;;;230.50;2252.80;;;;;;5012268;28;19906;-78
2021/04/18 02:14:45;;;;;;;32.55;20.33;;;230.50;2252.80;;;;;;5012549;28;20034;-77
2021/04/18 02:17:11;;;;;;;;;;;230.50;2252.80;;;;;;4992587;28;20045;-78
2021/04/18 02:19:37;;;;;;;28.17;19.63;;;230.40;2252.80;;;;;;5011980;28;19905;-79
2021/04/18 02:22:02;;;;;;;;;;;230.50;2252.80;;;;;;4993722;28;20049;-79
2021/04/18 02:24:28;;;;;;;33.28;20.65;;;205.70;2252.80;;;;;;5012140;28;19910;-79
2021/04/18 02:26:54;;;;;;;;;;;205.70;2252.80;;;;;;5012291;28;20049;-79
2021/04/18 02:29:20;;;;;;;35.70;22.42;;;205.70;2252.80;;;;;;5012070;28;19909;-79
2021/04/18 02:31:45;;;;;;;;;;;205.70;2252.80;;;;;;4994787;28;20029;-79
2021/04/18 02:34:11;;;;;;;35.58;22.90;;;205.60;2252.80;;;;;;4994366;28;19917;-79
2021/04/18 02:36:38;;;;;;;39.78;25.25;;;205.70;2252.80;;;;;;5009243;28;20537;-78
2021/04/18 02:39:05;;;;;;;41.10;24.90;;;205.70;2252.80;;;;;;4994323;28;20025;-78
2021/04/18 02:41:31;;;;;;;34.50;23.67;;;205.70;2252.80;;;;;;5011877;28;20022;-79
2021/04/18 02:43:56;;;;;;;;;;;205.70;2252.80;;;;;;4993767;28;20038;-80
2021/04/18 02:46:22;;;;;;;39.33;25.02;;;205.60;2252.80;;;;;;5011569;28;19936;-79
2021/04/18 02:48:48;;;;;;;;;;;205.60;2252.80;;;;;;4994004;28;20025;-79
2021/04/18 02:51:14;;;;;;;38.80;24.33;;;205.70;2252.80;;;;;;4993659;28;19913;-78
2021/04/18 02:53:39;;;;;;;;;;;205.70;2252.80;;;;;;5012060;28;20057;-82
2021/04/18 02:56:05;;;;;;;36.05;22.77;;;230.40;2252.80;;;;;;5011818;28;19996;-80
2021/04/18 02:58:31;;;;;;;;;;;205.70;2252.80;;;;;;5012035;28;20046;-80
2021/04/18 03:00:56;;;;;;;31.10;18.95;;;205.70;2252.80;;;;;;5011728;28;20015;-79
2021/04/18 03:03:22;;;;;;;;;;;205.70;2252.80;;;;;;4994102;28;20041;-81
2021/04/18 03:05:48;;;;;;;35.72;22.55;;;205.70;2252.80;;;;;;5012230;28;19905;-79
2021/04/18 03:08:14;;;;;;;;;;;205.60;2252.80;;;;;;4994518;28;20475;-80
2021/04/18 03:10:39;;;;;;;33.30;22.25;;;205.70;2252.80;;;;;;5011346;28;19905;-77
2021/04/18 03:13:05;;;;;;;;;;;205.60;2252.80;;;;;;4994347;28;20071;-79
2021/04/18 03:15:31;;;;;;;33.10;22.08;;;205.60;2252.80;;;;;;4993905;28;19960;-78
2021/04/18 03:17:57;;;;;;;;;;;205.60;2252.80;;;;;;5012057;28;20030;-79
2021/04/18 03:20:23;;;;;;;35.60;21.92;;;205.60;2252.80;;;;;;5011371;28;19912;-78
2021/04/18 03:22:48;;;;;;;;;;;205.40;2252.80;;;;;;4994399;28;20025;-79
2021/04/18 03:25:14;;;;;;;37.47;23.00;;;205.50;2252.80;;;;;;4993695;28;19910;-80
2021/04/18 03:27:40;;;;;;;;;;;205.50;2252.80;;;;;;5013113;28;20538;-78
2021/04/18 03:30:07;;;;;;;33.92;22.83;;;205.60;2252.80;;;;;;5015167;28;19972;-77
2021/04/18 03:32:33;;;;;;;36.97;24.20;;;205.50;2252.80;;;;;;4997555;28;20042;-78
2021/04/18 03:34:59;;;;;;;37.00;23.75;;;205.40;2252.80;;;;;;4996945;28;20030;-80
2021/04/18 03:37:25;;;;;;;;;;;205.40;2252.80;;;;;;4998055;28;20042;-79
2021/04/18 03:39:51;;;;;;;39.03;23.55;;;205.40;2252.80;;;;;;4997814;28;19905;-81
2021/04/18 03:42:16;;;;;;;;;;;205.50;2252.80;;;;;;5015372;28;20026;-78
2021/04/18 03:44:42;;;;;;;38.33;24.17;;;205.70;2252.80;;;;;;5015126;28;19917;-79
2021/04/18 03:47:08;;;;;;;;;;;205.60;2252.80;;;;;;5015232;28;20033;-80
2021/04/18 03:49:33;;;;;;;35.63;23.90;;;205.70;2252.80;;;;;;5014878;28;19905;-78
2021/04/18 03:51:59;;;;;;;;;;;230.40;2252.80;;;;;;4994207;28;20046;-80
2021/04/18 03:54:25;;;;;;;33.95;23.08;;;230.50;2252.80;;;;;;5015009;28;19909;-78
2021/04/18 03:56:51;;;;;;;;;;;230.50;2252.80;;;;;;5013015;28;20445;-79
2021/04/18 03:59:17;;;;;;;34.13;22.70;;;230.50;2252.80;;;;;;5014255;28;19906;-79
2021/04/18 04:01:43;;;;;;;37.10;24.20;;;230.50;2252.80;;;;;;4997215;28;20022;-78
2021/04/18 04:04:09;;;;;;;;;;;230.60;2252.80;;;;;;5015178;28;20014;-78
2021/04/18 04:06:34;;;;;;;39.15;24.40;;;230.50;2252.80;;;;;;4997077;28;19952;-80
2021/04/18 04:09:01;;;;;;;;;;;230.50;2252.80;;;;;;5014892;28;20057;-79
2021/04/18 04:11:26;;;;;;;34.22;22.88;;;230.60;2252.80;;;;;;5014890;28;19905;-79
2021/04/18 04:13:52;;;;;;;;;;;230.60;2252.80;;;;;;5014906;28;20026;-79
2021/04/18 04:16:17;;;;;;;32.22;21.77;;;230.60;2252.80;;;;;;5014683;28;19905;-80
2021/04/18 04:18:43;;;;;;;;;;;230.60;2252.80;;;;;;4996205;28;20072;-78
2021/04/18 04:21:09;;;;;;;34.33;23.10;;;230.60;2252.80;;;;;;4996694;28;19909;-80
2021/04/18 04:23:34;;;;;;;;;;;230.60;2252.80;;;;;;4997015;28;20025;-79
2021/04/18 04:26:02;;;;;;;33.70;21.92;;;230.70;2252.80;;;;;;4996829;28;19964;-79
2021/04/18 04:28:28;;;;;;;37.25;25.45;;;230.60;2252.80;;;;;;4996564;28;20056;-80
2021/04/18 04:30:53;;;;;;;;;;;230.60;2252.80;;;;;;5014578;28;20426;-80
2021/04/18 04:33:19;;;;;;;33.25;22.52;;;230.60;2252.80;;;;;;5014398;28;19906;-80
2021/04/18 04:35:45;;;;;;;;;;;230.60;2252.80;;;;;;5014564;28;20033;-78
2021/04/18 04:38:10;;;;;;;35.67;24.33;;;230.60;2252.80;;;;;;5013872;28;20386;-78
2021/04/18 04:40:36;;;;;;;;;;;230.50;2252.80;;;;;;5013523;28;20014;-79
2021/04/18 04:43:02;;;;;;;40.50;25.25;;;230.60;2252.80;;;;;;5010132;28;19906;-78
2021/04/18 04:45:27;;;;;;;;;;;230.50;2252.80;;;;;;4996681;28;20029;-77
2021/04/18 04:47:53;;;;;;;34.17;22.63;;;230.60;2252.80;;;;;;5014034;28;20481;-79
2021/04/18 04:50:19;;;;;;;;;;;230.60;2252.80;;;;;;5014345;28;20022;-80
2021/04/18 04:52:45;;;;;;;36.97;24.98;;;230.60;2252.80;;;;;;4996025;28;19929;-78
2021/04/18 04:55:11;;;;;;;;;;;230.60;2252.80;;;;;;4996246;28;20037;-79
2021/04/18 04:57:37;;;;;;;35.13;24.52;;;230.70;2252.80;;;;;;5013885;28;19913;-78
2021/04/18 05:00:06;;;;;;;;;;;230.70;2252.80;;;;;;4996197;28;20483;-77
2021/04/18 05:02:32;;;;;;;37.38;24.30;;;230.80;2252.80;;;;;;5013613;28;19905;-77
2021/04/18 05:04:57;;;;;;;;;;;230.70;2252.80;;;;;;5014231;28;20088;-78
2021/04/18 05:07:23;;;;;;;36.13;23.55;;;230.80;2252.80;;;;;;4995821;28;20256;-79
2021/04/18 05:09:48;;;;;;;;;;;230.70;2252.80;;;;;;5014261;28;20185;-78
2021/04/18 05:12:15;;;;;;;46.03;32.10;;;230.70;2252.80;;;;;;4995756;28;19959;-78
2021/04/18 05:14:41;;;;;;;59.75;43.33;;;230.70;2252.80;;;;;;4995753;28;20022;-80
2021/04/18 05:17:07;;;;;;;73.75;57.95;;;230.70;2252.80;;;;;;4995517;28;20048;-78
2021/04/18 05:19:33;;;;;;;;;;;230.70;2252.80;;;;;;4996506;28;20407;-79
2021/04/18 05:21:58;;;;;;;65.63;49.08;;;230.80;2252.80;;;;;;5012810;28;19921;-78
2021/04/18 05:24:24;;;;;;;;;;;230.80;2252.80;;;;;;5013831;28;20076;-77
2021/04/18 05:26:50;;;;;;;74.85;52.95;;;230.90;2252.80;;;;;;5012934;28;19913;-78
2021/04/18 05:29:16;;;;;;;56.28;40.10;;;230.70;2252.80;;;;;;4995472;28;20026;-79
2021/04/18 05:31:41;;;;;;;;;;;230.70;2252.80;;;;;;5013561;28;20022;-79
2021/04/18 05:34:07;;;;;;;68.82;48.78;;;230.80;2252.80;;;;;;5012975;28;19909;-79
2021/04/18 05:36:33;;;;;;;;;;;230.70;2252.80;;;;;;5013603;28;20026;-79
2021/04/18 05:38:58;;;;;;;48.08;33.40;;;230.80;2252.80;;;;;;5012675;28;19916;-78
2021/04/18 05:41:24;;;;;;;;;;;230.80;2252.80;;;;;;5013394;28;20014;-79
2021/04/18 05:43:50;;;;;;;54.92;35.95;;;230.80;2252.80;;;;;;5012655;28;19967;-78
2021/04/18 05:46:16;;;;;;;;;;;230.70;2252.80;;;;;;5013327;28;20395;-79
2021/04/18 05:48:42;;;;;;;50.05;33.85;;;230.80;2252.80;;;;;;5012565;28;20396;-78
2021/04/18 05:51:07;;;;;;;;;;;230.70;2252.80;;;;;;4995277;28;20095;-78
2021/04/18 05:53:33;;;;;;;41.00;28.35;;;230.70;2252.80;;;;;;4994728;28;19917;-78
2021/04/18 05:55:59;;;;;;;;;;;230.80;2252.80;;;;;;5013126;28;20042;-78
2021/04/18 05:58:25;;;;;;;60.05;36.45;;;230.80;2252.80;;;;;;4994958;28;19921;-78
2021/04/18 06:00:50;;;;;;;;;;;230.90;2252.80;;;;;;5012803;28;20467;-78
2021/04/18 06:03:16;;;;;;;60.95;41.22;;;230.90;2252.80;;;;;;4994932;28;19905;-78
2021/04/18 06:05:42;;;;;;;;;;;230.80;2252.80;;;;;;5012935;28;20085;-78
2021/04/18 06:08:08;;;;;;;78.38;45.83;;;230.80;2252.80;;;;;;5012536;28;19905;-78
2021/04/18 06:10:34;;;;;;;;;;;230.80;2252.80;;;;;;4995113;28;20414;-77
2021/04/18 06:13:00;;;;;;;131.52;70.65;;;230.90;2252.80;;;;;;5012838;28;19910;-80
2021/04/18 06:15:26;;;;;;;;;;;230.90;2252.80;;;;;;4995323;28;20431;-79
2021/04/18 06:17:52;;;;;;;43.13;25.63;;;230.90;2252.80;;;;;;5012768;28;19917;-77
2021/04/18 06:20:18;;;;;;;;;;;230.80;2252.80;;;;;;5013109;28;20025;-77
2021/04/18 06:22:44;;;;;;;57.85;33.83;;;230.80;2252.80;;;;;;5012791;28;19975;-76
2021/04/18 06:25:10;;;;;;;;;;;230.90;2252.80;;;;;;5012783;28;20104;-77
2021/04/18 06:27:36;;;;;;;43.40;26.75;;;230.90;2252.80;;;;;;5012292;28;19906;-76
2021/04/18 06:30:02;;;;;;;;;;;230.90;2252.80;;;;;;5012850;28;20018;-77
2021/04/18 06:32:27;;;;;;;42.17;26.67;;;230.90;2252.80;;;;;;4994705;28;20371;-78
2021/04/18 06:34:53;;;;;;;;;;;230.70;2252.80;;;;;;5013256;28;20075;-77
2021/04/18 06:37:19;;;;;;;50.40;32.33;;;230.80;2252.80;;;;;;5012802;28;19924;-76
2021/04/18 06:39:44;;;;;;;;;;;230.90;2252.80;;;;;;4995127;28;20036;-78
2021/04/18 06:42:14;;;;;;;48.25;31.02;;;230.90;2252.80;;;;;;5012179;28;20251;-79
2021/04/18 06:44:40;;;;;;;37.53;25.10;;;230.90;2252.80;;;;;;5012364;28;20022;-78
2021/04/18 06:47:06;;;;;;;61.72;38.70;;;230.90;2252.80;;;;;;4994031;28;20088;-78
2021/04/18 06:49:32;;;;;;;;;;;230.90;2252.80;;;;;;5012914;28;20026;-78
2021/04/18 06:51:58;;;;;;;65.30;41.40;;;230.90;2252.80;;;;;;5012206;28;19968;-78
2021/04/18 06:54:24;;;;;;;51.05;33.22;;;231.00;2252.80;;;;;;4994353;28;20034;-78
2021/04/18 06:56:50;;;;;;;41.03;27.17;;;231.00;2252.80;;;;;;5012205;28;20034;-78
2021/04/18 06:59:15;;;;;;;;;;;230.80;2252.80;;;;;;4994860;28;20033;-79
2021/04/18 07:01:42;;;;;;;39.67;25.67;;;230.70;2252.80;;;;;;5011724;28;19905;-81
2021/04/18 07:04:23;;;;;;;47.95;28.48;;;230.60;2252.80;;;;;;4994278;28;20049;-79
2021/04/18 07:06:51;;;;;;;38.13;24.50;;;230.70;2252.80;;;;;;5012387;28;20093;-79
2021/04/18 07:09:22;;;;;;;39.85;24.13;;;230.70;2252.80;;;;;;5012281;28;20030;-80
2021/04/18 07:12:00;;;;;;;38.97;28.02;;;230.70;2252.80;;;;;;5012218;28;20097;-85
2021/04/18 07:14:35;;;;;;;47.25;31.60;;;230.80;2252.80;;;;;;4994550;28;20073;-79
2021/04/18 07:17:15;;;;;;;35.00;24.33;;;230.90;2252.80;;;;;;5011853;28;20051;-80
2021/04/18 07:19:52;;;;;;;41.75;30.38;;;231.00;2252.80;;;;;;5011738;28;20026;-79
2021/04/18 07:22:19;;;;;;;34.65;24.00;;;231.10;2252.80;;;;;;5012236;28;20549;-79
2021/04/18 07:24:56;;;;;;;45.15;27.27;;;231.10;2252.80;;;;;;4994038;28;20021;-79
2021/04/18 07:27:22;;;;;;;35.33;24.42;;;231.00;2252.80;;;;;;4994214;28;20022;-79
2021/04/18 07:29:57;;;;;;;33.08;23.25;;;231.10;2252.80;;;;;;4994243;28;20033;-79
2021/04/18 07:32:24;;;;;;;45.75;30.05;;;231.30;2252.80;;;;;;5011791;28;20028;-77
2021/04/18 07:34:51;;;;;;;43.05;26.55;;;231.30;2252.80;;;;;;5011876;28;20014;-77
2021/04/18 07:37:19;;;;;;;34.30;23.35;;;231.30;2252.80;;;;;;5011608;28;20030;-78
2021/04/18 07:39:58;;;;;;;32.75;21.60;;;231.30;2252.80;;;;;;4994383;28;20026;-79
2021/04/18 07:42:35;;;;;;;32.05;22.52;;;231.30;2252.80;;;;;;5011969;28;20054;-78
2021/04/18 07:45:18;;;;;;;33.85;24.42;;;256.00;2252.80;;;;;;4993809;28;20026;-79
2021/04/18 07:47:47;;;;;;;28.48;19.27;;;256.10;2252.80;;;;;;5012060;28;20064;-78
2021/04/18 07:50:19;;;;;;;29.92;20.90;;;256.20;2252.80;;;;;;4994495;28;20029;-79
2021/04/18 07:52:47;;;;;;;27.55;19.77;;;256.20;2252.80;;;;;;5011545;28;20058;-80
2021/04/18 07:55:14;;;;;;;35.03;21.05;;;256.20;2252.80;;;;;;5011775;28;20049;-80
2021/04/18 07:57:40;;;;;;;29.42;19.50;;;256.20;2252.80;;;;;;4993338;28;20095;-83
2021/04/18 08:00:08;;;;;;;32.65;21.05;;;256.20;2252.80;;;;;;4994169;28;20026;-80
2021/04/18 08:02:34;;;;;;;29.42;19.73;;;256.10;2252.80;;;;;;4994156;28;20034;-85
2021/04/18 08:05:00;;;;;;;;;;;256.20;2252.80;;;;;;5012236;28;20108;-80
2021/04/18 08:07:26;;;;;;;26.95;16.88;;;256.20;2252.80;;;;;;4994173;28;20399;-83
2021/04/18 08:10:10;;;;;;;;;;;256.20;2252.80;;;;;;5012531;28;20029;-85
2021/04/18 08:12:36;;;;;;;30.42;21.63;;;256.20;2252.80;;;;;;5012045;28;19983;-79
2021/04/18 08:15:14;;;;;;;32.65;22.27;;;256.10;2252.80;;;;;;5014727;28;20022;-81
2021/04/18 08:18:06;;;;;;;34.25;23.13;;;256.20;2252.80;;;;;;4997308;28;20076;-80
2021/04/18 08:20:35;;;;;;;27.13;19.73;;;256.20;2252.80;;;;;;5014996;28;20053;-79
2021/04/18 08:23:07;;;;;;;31.63;19.85;;;256.20;2252.80;;;;;;4996875;28;20036;-80
2021/04/18 08:25:35;;;;;;;26.05;18.20;;;256.30;2252.80;;;;;;4997363;28;20024;-80
2021/04/18 08:28:12;;;;;;;29.25;20.38;;;256.30;2252.80;;;;;;5015017;28;20100;-80
2021/04/18 08:31:07;;;;;;;30.02;21.85;;;256.40;2252.80;;;;;;4997111;28;20410;-83
2021/04/18 08:33:39;;;;;;;23.83;17.13;;;256.40;2252.80;;;;;;5014465;28;20045;-79
2021/04/18 08:36:14;;;;;;;26.17;18.50;;;256.20;2252.80;;;;;;5014835;28;20037;-79
2021/04/18 08:38:41;;;;;;;31.95;20.10;;;256.20;2252.80;;;;;;4997071;28;20132;-80
2021/04/18 08:41:14;;;;;;;25.02;18.02;;;256.10;2252.80;;;;;;4997039;28;20498;-80
2021/04/18 08:43:41;;;;;;;24.08;16.63;;;256.20;2252.80;;;;;;4996788;28;20040;-80
2021/04/18 08:46:07;;;;;;;24.90;17.13;;;256.20;2252.80;;;;;;4996775;28;20033;-78
2021/04/18 08:48:33;;;;;;;24.23;18.20;;;256.20;2252.80;;;;;;5014451;28;20021;-79
2021/04/18 08:51:06;;;;;;;;;;;256.40;2252.80;;;;;;5014682;28;20068;-78
2021/04/18 08:53:54;;;;;;;17.58;11.93;;;256.40;2252.80;;;;;;4995658;28;20330;-79
2021/04/18 08:56:22;;;;;;;19.50;14.95;;;256.30;2252.80;;;;;;5013727;28;20022;-78
2021/04/18 08:58:48;;;;;;;18.77;13.05;;;256.10;2252.80;;;;;;4995781;28;20107;-78
2021/04/18 09:01:15;;;;;;;22.05;15.48;;;256.30;2252.80;;;;;;5013423;28;20701;-78
2021/04/18 09:03:58;;;;;;;28.25;17.48;;;256.20;2252.80;;;;;;4995374;28;20032;-77
2021/04/18 09:06:35;;;;;;;23.95;14.60;;;256.10;2252.80;;;;;;4996060;28;20104;-79
2021/04/18 09:09:04;;;;;;;23.70;16.08;;;256.10;2252.80;;;;;;5013444;28;20029;-80
2021/04/18 09:11:42;;;;;;;18.20;14.00;;;256.20;2252.80;;;;;;5012807;28;20434;-80
2021/04/18 09:14:11;;;;;;;23.50;16.80;;;256.20;2252.80;;;;;;5078700;23;20018;-79
2021/04/18 09:16:38;;;;;;;20.08;13.32;;;256.20;2252.80;;;;;;4973975;28;998337;-79
2021/04/18 09:19:30;;;;;;;18.58;13.63;;;256.20;2252.80;;;;;;5031553;28;20030;-79
2021/04/18 09:22:08;;;;;;;20.52;14.77;;;256.00;2252.80;;;;;;5033367;28;20028;-79
2021/04/18 09:24:40;;;;;;;19.25;13.63;;;256.00;2252.80;;;;;;5032843;28;20018;-79
2021/04/18 09:27:16;;;;;;;23.60;15.55;;;256.30;2252.80;;;;;;5033059;28;20109;-79
2021/04/18 09:29:47;;;;;;;18.73;12.98;;;256.50;2252.80;;;;;;5033721;28;20072;-85
2021/04/18 09:32:38;;;;;;;21.15;14.10;;;256.40;2252.80;;;;;;5015436;28;20029;-81
2021/04/18 09:35:06;;;;;;;14.88;10.35;;;256.30;2252.80;;;;;;4975782;28;20045;-85
2021/04/18 09:37:35;;;;;;;13.15;10.27;;;256.20;2252.80;;;;;;4991874;28;20045;-84
2021/04/18 09:40:12;;;;;;;16.10;10.98;;;256.00;2252.80;;;;;;4991865;28;20069;-81
2021/04/18 09:42:44;;;;;;;16.40;9.50;;;256.20;2252.80;;;;;;4991995;28;20030;-80
2021/04/18 09:45:16;;;;;;;14.85;11.60;;;256.00;2252.80;;;;;;4992114;28;20026;-85
2021/04/18 09:47:50;;;;;;;13.60;9.82;;;256.00;2252.80;;;;;;4991716;28;20038;-78
2021/04/18 09:50:35;;;;;;;15.15;10.68;;;231.30;2252.80;;;;;;4992441;28;20481;-86
2021/04/18 09:53:14;;;;;;;12.38;8.68;;;231.30;2252.80;;;;;;4992128;28;20042;-86
2021/04/18 09:55:52;;;;;;;10.65;8.75;;;231.30;2252.80;;;;;;4991882;28;20391;-85
2021/04/18 09:58:34;;;;;;;12.10;9.40;;;231.10;2252.80;;;;;;4976472;28;20053;-87
2021/04/18 10:01:01;;;;;;;13.20;9.48;;;231.10;2252.80;;;;;;4990649;28;20034;-81
2021/04/18 10:03:35;;;;;;;13.27;9.68;;;231.20;2252.80;;;;;;4991919;28;20038;-75
2021/04/18 10:06:00;;;;;;;15.73;10.93;;;231.20;2252.80;;;;;;4991813;28;20514;-77
2021/04/18 10:08:34;;;;;;;13.93;10.23;;;231.10;2252.80;;;;;;4992057;28;20034;-85
2021/04/18 10:11:06;;;;;;;16.95;12.35;;;231.20;2252.80;;;;;;4993817;28;20030;-77
2021/04/18 10:13:54;;;;;;;14.82;10.38;;;231.20;2252.80;;;;;;5013927;28;20033;-81
2021/04/18 10:16:31;;;;;;;14.30;10.85;;;231.10;2252.80;;;;;;4994869;28;20050;-81
2021/04/18 10:19:14;;;;;;;13.77;10.00;;;231.10;2252.80;;;;;;5012837;28;20107;-80
2021/04/18 10:21:41;;;;;;;14.48;9.82;;;231.10;2252.80;;;;;;5013265;28;20026;-85
2021/04/18 10:24:30;;;;;;;18.05;9.55;;;231.00;2252.80;;;;;;4995591;28;20459;-76
2021/04/18 10:26:55;;;;;;;12.73;9.13;;;230.90;2252.80;;;;;;5012675;28;20025;-77
2021/04/18 10:29:21;;;;;;;;;;;231.00;2252.80;;;;;;5013328;28;20052;-75
2021/04/18 10:31:47;;;;;;;13.20;9.50;;;230.90;2252.80;;;;;;5012458;28;19905;-76
2021/04/18 10:34:12;;;;;;;;;;;230.90;2252.80;;;;;;5013255;28;20108;-76
2021/04/18 10:36:38;;;;;;;40.53;23.48;;;230.80;2252.80;;;;;;5011421;28;20294;-76
2021/04/18 10:39:04;;;;;;;;;;;230.50;2252.80;;;;;;5005779;28;20387;-78
2021/04/18 10:41:30;;;;;;;23.20;16.55;;;230.40;2252.80;;;;;;5022763;28;19940;-77
2021/04/18 10:43:55;;;;;;;;;;;230.40;2252.80;;;;;;5002354;28;20041;-76
2021/04/18 10:46:21;;;;;;;34.10;23.27;;;230.60;2252.80;;;;;;4994558;28;20048;-75
2021/04/18 10:48:46;;;;;;;;;;;230.50;2252.80;;;;;;5012696;28;20785;-78
2021/04/18 10:51:12;;;;;;;31.10;22.35;;;230.50;2252.80;;;;;;5012234;28;19909;-76
2021/04/18 10:53:38;;;;;;;;;;;230.40;2252.80;;;;;;4994996;28;20386;-76
2021/04/18 10:56:04;;;;;;;32.70;22.52;;;230.40;2252.80;;;;;;5012152;28;19906;-76
2021/04/18 10:58:30;;;;;;;27.25;20.42;;;230.40;2252.80;;;;;;4994139;28;20041;-76
2021/04/18 11:00:55;;;;;;;;;;;230.60;2252.80;;;;;;4994952;28;20022;-75
2021/04/18 11:03:21;;;;;;;27.63;19.73;;;230.70;2252.80;;;;;;5012191;28;20004;-78
2021/04/18 11:05:47;;;;;;;;;;;230.80;2252.80;;;;;;5012600;28;20026;-81
2021/04/18 11:08:13;;;;;;;25.40;18.80;;;230.90;2252.80;;;;;;5012356;28;19909;-81
2021/04/18 11:10:39;;;;;;;;;;;230.90;2252.80;;;;;;4995453;28;20022;-80
2021/04/18 11:13:04;;;;;;;25.33;18.08;;;230.90;2252.80;;;;;;4994707;28;19916;-80
2021/04/18 11:15:30;;;;;;;;;;;230.70;2252.80;;;;;;4995594;28;20073;-78
2021/04/18 11:17:56;;;;;;;27.48;19.30;;;230.80;2252.80;;;;;;5014938;28;19925;-77
2021/04/18 11:20:22;;;;;;;;;;;230.90;2252.80;;;;;;5012318;28;20022;-76
2021/04/18 11:22:48;;;;;;;21.80;17.27;;;230.90;2252.80;;;;;;5001309;28;19932;-80
2021/04/18 11:25:14;;;;;;;;;;;230.90;2252.80;;;;;;5031858;28;20294;-80
2021/04/18 11:27:40;;;;;;;25.30;17.58;;;230.70;2252.80;;;;;;5007901;28;20299;-78
2021/04/18 11:30:07;;;;;;;29.17;19.40;;;230.90;2252.80;;;;;;5031449;28;20017;-77
2021/04/18 11:32:32;;;;;;;37.67;23.20;;;231.00;2252.80;;;;;;5013858;28;20499;-79
2021/04/18 11:34:58;;;;;;;;;;;231.10;2252.80;;;;;;5014095;28;20033;-78
2021/04/18 11:37:24;;;;;;;39.28;23.73;;;231.10;2252.80;;;;;;5031687;28;19913;-76
2021/04/18 11:39:50;;;;;;;24.92;18.25;;;231.00;2252.80;;;;;;5031471;28;20509;-77
2021/04/18 11:42:16;;;;;;;;;;;231.00;2252.80;;;;;;5014248;28;20060;-79
2021/04/18 11:44:41;;;;;;;24.88;17.45;;;230.90;2252.80;;;;;;5007407;28;19910;-76
2021/04/18 11:47:07;;;;;;;;;;;230.90;2252.80;;;;;;5007749;28;20120;-78
2021/04/18 11:49:33;;;;;;;28.08;20.33;;;231.00;2252.80;;;;;;5005776;28;19909;-77
2021/04/18 11:51:58;;;;;;;;;;;231.00;2252.80;;;;;;5006456;28;20035;-76
2021/04/18 11:54:24;;;;;;;24.17;19.48;;;231.10;2252.80;;;;;;5026113;28;19913;-76
2021/04/18 11:56:49;;;;;;;;;;;231.00;2252.80;;;;;;5023129;28;20068;-76
2021/04/18 11:59:15;;;;;;;26.65;20.25;;;231.10;2252.80;;;;;;5025063;28;19917;-79
2021/04/18 12:01:41;;;;;;;;;;;231.10;2252.80;;;;;;5023336;28;20107;-78
2021/04/18 12:04:06;;;;;;;25.05;18.17;;;230.90;2252.80;;;;;;5030401;28;19913;-77
2021/04/18 12:06:32;;;;;;;;;;;230.70;2252.80;;;;;;5029128;28;20030;-78
2021/04/18 12:08:58;;;;;;;22.75;17.63;;;230.90;2252.80;;;;;;5023411;28;19916;-77
2021/04/18 12:11:24;;;;;;;;;;;231.10;2252.80;;;;;;5004188;28;20360;-77
2021/04/18 12:13:50;;;;;;;26.25;18.27;;;231.10;2252.80;;;;;;5024119;28;20248;-78
2021/04/18 12:16:16;;;;;;;30.30;19.35;;;231.20;2252.80;;;;;;5029077;28;20535;-80
2021/04/18 12:18:42;;;;;;;;;;;231.10;2252.80;;;;;;5006026;28;20129;-76
2021/04/18 12:21:08;;;;;;;39.10;21.35;;;231.20;2252.80;;;;;;5010394;28;19959;-75
2021/04/18 12:23:34;;;;;;;34.60;20.20;;;231.20;2252.80;;;;;;5010505;28;20022;-78
2021/04/18 12:26:00;;;;;;;;;;;231.20;2252.80;;;;;;5026048;28;20024;-79
2021/04/18 12:28:26;;;;;;;25.02;17.63;;;231.30;2252.80;;;;;;5014745;28;19905;-76
2021/04/18 12:30:52;;;;;;;15.35;12.15;;;256.00;2252.80;;;;;;5031957;28;20100;-80
2021/04/18 12:33:18;;;;;;;21.88;16.38;;;231.20;2252.80;;;;;;5002359;28;20037;-79